Overview Statistics Trail Chart Weather Telemetry Raw packets
 

This is the latest recevied weather packets stored in our database for station/object K4WCH. If no packets are shown the sender has not sent any weather packets the latest 10 day(s).

<< 95 96 97 98 99 100 101 >>
Time Temp. Humidity Pressure Rain* Wind** Luminosity Snow
1787950276 33.89° C 55% 1016.2 hPa 0 mm - 121 W/m² -
1787949972 33.89° C 53% 1016 hPa 0 mm - 703 W/m² -
1787949667 34.44° C 52% 1015.8 hPa 0 mm - 633 W/m² -
1787949375 33.89° C 52% 1015.9 hPa 0 mm - 633 W/m² -
1787949066 33.89° C 54% 1015.8 hPa 0 mm - 121 W/m² -
1787948762 34.44° C 54% 1015.9 hPa 0 mm - 659 W/m² -
1787948457 34.44° C 51% 1015.8 hPa 0 mm - 725 W/m² -
1787948153 33.89° C 55% 1016 hPa 0 mm - 839 W/m² -
1787947852 33.89° C 55% 1016.3 hPa 0 mm - 856 W/m² -
1787947551 33.89° C 53% 1016.4 hPa 0 mm - 874 W/m² -
1787947246 34.44° C 54% 1016.6 hPa 0 mm - 879 W/m² -
1787946945 35° C 50% 1016.6 hPa 0 mm - 860 W/m² -
1787946643 35° C 50% 1016.6 hPa 0 mm - 855 W/m² -
1787946338 35° C 47% 1016.5 hPa 0 mm - 868 W/m² -
1787946033 35° C 47% 1016.6 hPa 0 mm - 763 W/m² -
1787945732 34.44° C 50% 1016.6 hPa 0 mm - 921 W/m² -
1787945428 33.89° C 54% 1016.5 hPa 0 mm - 959 W/m² -
1787945124 33.89° C 52% 1016.5 hPa 0 mm - 195 W/m² -
1787944821 35° C 48% 1016.5 hPa 0 mm - 760 W/m² -
1787944516 33.89° C 49% 1016.5 hPa 0 mm - 992 W/m² -
1787944212 34.44° C 48% 1016.5 hPa 0 mm - 927 W/m² -
1787943911 34.44° C 51% 1016.6 hPa 0 mm - 948 W/m² -
1787943607 33.89° C 50% 1016.6 hPa 0 mm - 935 W/m² -
1787943307 33.89° C 51% 1016.8 hPa 0 mm - 974 W/m² -
1787943002 33.89° C 51% 1016.9 hPa 0 mm - 951 W/m² -

* Rain latest hour (hover to see other rain measurements)
** Current wind speed in m/s (hover to see current wind gust speed)